createdAt,value
2019-05-26T00:00:22.319Z,19.7
2019-05-26T00:01:24.756Z,19.9
2019-05-26T00:02:27.191Z,19.7
2019-05-26T00:03:29.630Z,19.9
2019-05-26T00:04:32.057Z,19.9
2019-05-26T00:05:34.499Z,19.9
2019-05-26T00:06:36.066Z,19.7
2019-05-26T00:07:38.489Z,19.7
2019-05-26T00:08:40.652Z,19.9
2019-05-26T00:09:43.072Z,19.8
2019-05-26T00:10:44.929Z,19.8
2019-05-26T00:11:47.705Z,20.1
2019-05-26T00:12:49.854Z,19.9
2019-05-26T00:13:51.454Z,19.9
2019-05-26T00:14:53.587Z,19.9
2019-05-26T00:15:55.750Z,19.8
2019-05-26T00:16:58.189Z,19.9
2019-05-26T00:18:00.629Z,19.8
2019-05-26T00:19:03.058Z,19.8
2019-05-26T00:20:05.490Z,19.9
2019-05-26T00:21:07.414Z,19.9
2019-05-26T00:22:09.557Z,20
2019-05-26T00:23:11.999Z,19.8
2019-05-26T00:24:14.432Z,19.7
2019-05-26T00:25:16.867Z,19.9
2019-05-26T00:26:19.235Z,19.9
2019-05-26T00:27:21.392Z,19.7
2019-05-26T00:28:23.549Z,19.8
2019-05-26T00:29:25.709Z,19.9
2019-05-26T00:30:27.577Z,19.7
2019-05-26T00:31:29.744Z,19.7
2019-05-26T00:32:32.187Z,20.1
2019-05-26T00:33:34.650Z,19.7
2019-05-26T00:34:36.794Z,19.8
2019-05-26T00:35:39.215Z,19.7
2019-05-26T00:36:41.362Z,19.9
2019-05-26T00:38:48.763Z,19.9
2019-05-26T00:39:50.639Z,20
2019-05-26T00:40:52.861Z,20.1
2019-05-26T00:41:55.289Z,20
2019-05-26T00:42:57.723Z,19.8
2019-05-26T00:43:59.883Z,19.8
2019-05-26T00:45:02.338Z,19.9
2019-05-26T00:46:04.758Z,19.8
2019-05-26T00:47:07.213Z,19.8
2019-05-26T00:48:09.815Z,20.1
2019-05-26T00:49:12.265Z,20
2019-05-26T00:50:14.115Z,20
2019-05-26T00:51:16.269Z,20.2
2019-05-26T00:52:17.902Z,20
2019-05-26T00:53:20.334Z,19.9
2019-05-26T00:54:22.776Z,20.1
2019-05-26T00:55:24.638Z,19.9
2019-05-26T00:56:27.069Z,20
2019-05-26T00:57:29.494Z,19.9
2019-05-26T00:58:31.928Z,19.8
2019-05-26T00:59:34.365Z,19.7
2019-05-26T01:00:36.785Z,19.9
2019-05-26T01:01:38.675Z,20
2019-05-26T01:02:41.104Z,20
2019-05-26T01:03:43.549Z,20
2019-05-26T01:04:45.974Z,19.9
2019-05-26T01:05:48.407Z,19.7
2019-05-26T01:06:50.548Z,20
2019-05-26T01:08:57.419Z,20
2019-05-26T01:09:59.852Z,19.9
2019-05-26T01:11:02.206Z,20.2
2019-05-26T01:12:04.386Z,19.7
2019-05-26T01:13:06.802Z,19.8
2019-05-26T01:14:09.235Z,19.9
2019-05-26T01:15:11.406Z,19.8
2019-05-26T01:16:13.279Z,19.9
2019-05-26T01:17:15.467Z,20
2019-05-26T01:18:17.905Z,20
2019-05-26T01:19:20.968Z,19.9
2019-05-26T01:20:23.395Z,19.8
2019-05-26T01:21:25.284Z,20.1
2019-05-26T01:22:27.472Z,20.2
2019-05-26T01:23:29.328Z,19.9
2019-05-26T01:24:31.485Z,20
2019-05-26T01:25:33.634Z,20.1
2019-05-26T01:26:35.499Z,20.1
2019-05-26T01:27:37.660Z,19.8
2019-05-26T01:28:40.275Z,19.9
2019-05-26T01:29:42.425Z,20.2
2019-05-26T01:30:44.876Z,19.9
2019-05-26T01:31:47.043Z,20.2
2019-05-26T01:32:49.488Z,19.8
2019-05-26T01:33:51.375Z,20.1
2019-05-26T01:34:53.794Z,20
2019-05-26T01:35:56.227Z,19.7
2019-05-26T01:36:58.377Z,19.9
2019-05-26T01:38:00.811Z,19.8
2019-05-26T01:39:02.976Z,19.9
2019-05-26T01:40:05.409Z,19.8
2019-05-26T01:41:07.573Z,20
2019-05-26T01:42:10.010Z,20
2019-05-26T01:43:12.443Z,20
2019-05-26T01:44:14.629Z,19.9
2019-05-26T01:45:17.088Z,19.9
2019-05-26T01:46:19.247Z,19.7
2019-05-26T01:47:21.415Z,19.8
2019-05-26T01:48:24.176Z,19.7
2019-05-26T01:49:26.675Z,20.3
2019-05-26T01:50:28.843Z,20.1
2019-05-26T01:51:31.281Z,19.7
2019-05-26T01:52:33.434Z,19.9
2019-05-26T01:53:35.695Z,20.1
2019-05-26T01:55:42.878Z,19.9
2019-05-26T01:56:45.306Z,19.8
2019-05-26T01:57:47.481Z,19.8
2019-05-26T01:58:49.910Z,20
2019-05-26T01:59:52.341Z,19.9
2019-05-26T02:00:54.208Z,19.9
2019-05-26T02:03:01.633Z,19.9
2019-05-26T02:04:03.788Z,19.9
2019-05-26T02:05:06.010Z,19.9
2019-05-26T02:06:08.439Z,19.7
2019-05-26T02:07:10.594Z,19.8
2019-05-26T02:08:13.027Z,19.8
2019-05-26T02:09:15.864Z,19.9
2019-05-26T02:10:18.287Z,20.1
2019-05-26T02:11:20.426Z,19.8
2019-05-26T02:12:22.577Z,20
2019-05-26T02:13:24.745Z,20.1
2019-05-26T02:14:27.173Z,20
2019-05-26T02:15:29.606Z,19.9
2019-05-26T02:16:31.765Z,19.9
2019-05-26T02:17:34.193Z,19.9
2019-05-26T02:18:36.634Z,20
2019-05-26T02:19:39.065Z,20.1
2019-05-26T02:20:41.498Z,19.7
2019-05-26T02:21:43.923Z,19.9
2019-05-26T02:22:45.802Z,19.8
2019-05-26T02:23:48.229Z,19.8
2019-05-26T02:24:50.382Z,19.9
2019-05-26T02:25:52.592Z,20.2
2019-05-26T02:26:55.037Z,20.1
2019-05-26T02:27:57.196Z,19.7
2019-05-26T02:29:00.233Z,19.8
2019-05-26T02:30:02.657Z,19.8
2019-05-26T02:31:05.076Z,19.9
2019-05-26T02:32:07.495Z,20.2
2019-05-26T02:33:09.930Z,20
2019-05-26T02:34:12.172Z,19.8
2019-05-26T02:35:14.318Z,20.1
2019-05-26T02:36:16.495Z,19.9
2019-05-26T02:37:18.919Z,20.1
2019-05-26T02:39:26.047Z,19.9
2019-05-26T02:40:28.470Z,20
2019-05-26T02:41:30.893Z,19.8
2019-05-26T02:42:33.328Z,20
2019-05-26T02:43:35.780Z,20.2
2019-05-26T02:44:38.213Z,19.6
2019-05-26T02:45:40.634Z,19.8
2019-05-26T02:46:43.082Z,20.2
2019-05-26T02:47:45.511Z,20
2019-05-26T02:48:47.722Z,19.8
2019-05-26T02:49:50.133Z,20.2
2019-05-26T02:50:52.554Z,20
2019-05-26T02:51:54.745Z,19.8
2019-05-26T02:52:57.181Z,20
2019-05-26T02:53:59.043Z,19.9
2019-05-26T02:55:00.685Z,20.1
2019-05-26T02:56:03.126Z,19.8
2019-05-26T02:57:05.286Z,20
2019-05-26T02:58:07.699Z,19.8
2019-05-26T02:59:10.131Z,20.1
2019-05-26T03:00:12.553Z,20.2
2019-05-26T03:01:14.982Z,20.2
2019-05-26T03:02:17.168Z,20.3
2019-05-26T03:03:19.598Z,20
2019-05-26T03:04:21.759Z,19.9
2019-05-26T03:05:23.954Z,19.8
2019-05-26T03:06:26.094Z,20.1
2019-05-26T03:07:28.527Z,20.2
2019-05-26T03:08:30.966Z,20
2019-05-26T03:09:33.401Z,20
2019-05-26T03:10:35.565Z,19.9
2019-05-26T03:11:37.981Z,20.1
2019-05-26T03:12:40.135Z,20
2019-05-26T03:13:42.576Z,19.9
2019-05-26T03:14:44.726Z,19.9
2019-05-26T03:15:46.890Z,19.9
2019-05-26T03:16:49.374Z,19.8
2019-05-26T03:17:51.806Z,19.8
2019-05-26T03:18:54.239Z,19.9
2019-05-26T03:19:56.400Z,19.9
2019-05-26T03:20:58.860Z,19.8
2019-05-26T03:22:01.032Z,19.8
2019-05-26T03:23:03.465Z,19.8
2019-05-26T03:24:05.642Z,19.8
2019-05-26T03:25:08.065Z,19.8
2019-05-26T03:26:10.228Z,19.8
2019-05-26T03:27:12.398Z,19.6
2019-05-26T03:28:14.802Z,19.7
2019-05-26T03:29:17.343Z,19.6
2019-05-26T03:30:19.768Z,19.9
2019-05-26T03:31:22.289Z,19.8
2019-05-26T03:32:24.756Z,19.6
2019-05-26T03:33:26.918Z,19.6
2019-05-26T03:34:29.405Z,19.9
2019-05-26T03:35:31.840Z,19.6
2019-05-26T03:36:34.101Z,19.9
2019-05-26T03:37:36.277Z,19.7
2019-05-26T03:38:38.705Z,19.8
2019-05-26T03:40:45.570Z,19.7
2019-05-26T03:41:47.995Z,19.6
2019-05-26T03:42:50.144Z,19.8
2019-05-26T03:43:52.575Z,20
2019-05-26T03:44:54.734Z,19.8
2019-05-26T03:45:57.167Z,19.8
2019-05-26T03:46:59.335Z,19.6
2019-05-26T03:48:01.759Z,19.6
2019-05-26T03:49:04.192Z,19.8
2019-05-26T03:50:06.091Z,19.7
2019-05-26T03:51:08.521Z,19.5
2019-05-26T03:52:10.949Z,19.6
2019-05-26T03:53:13.532Z,19.8
2019-05-26T03:54:15.963Z,19.7
2019-05-26T03:55:18.118Z,19.5
2019-05-26T03:56:20.018Z,19.5
2019-05-26T03:57:22.477Z,19.8
2019-05-26T03:58:24.895Z,19.5
2019-05-26T03:59:27.074Z,19.5
2019-05-26T04:00:29.504Z,19.6
2019-05-26T04:01:32.273Z,19.4
2019-05-26T04:02:34.716Z,19.8
2019-05-26T04:03:37.147Z,19.6
2019-05-26T04:04:39.575Z,19.8
2019-05-26T04:05:41.767Z,19.8
2019-05-26T04:06:43.623Z,19.8
2019-05-26T04:07:46.056Z,19.7
2019-05-26T04:08:48.478Z,19.7
2019-05-26T04:10:55.633Z,19.7
2019-05-26T04:11:58.058Z,19.7
2019-05-26T04:13:00.215Z,19.8
2019-05-26T04:14:02.712Z,19.6
2019-05-26T04:15:04.870Z,19.7
2019-05-26T04:16:07.043Z,19.7
2019-05-26T04:17:09.467Z,19.7
2019-05-26T04:18:11.602Z,19.6
2019-05-26T04:19:14.141Z,19.7
2019-05-26T04:20:16.296Z,19.7
2019-05-26T04:21:18.749Z,19.7
2019-05-26T04:22:21.171Z,19.8
2019-05-26T04:23:23.325Z,19.6
2019-05-26T04:24:25.477Z,19.7
2019-05-26T04:25:27.903Z,19.6
2019-05-26T04:26:30.079Z,19.5
2019-05-26T04:27:32.488Z,19.5
2019-05-26T04:28:34.915Z,19.6
2019-05-26T04:29:36.771Z,19.5
2019-05-26T04:30:39.214Z,19.5
2019-05-26T04:31:41.102Z,19.5
2019-05-26T04:32:43.317Z,19.6
2019-05-26T04:33:45.480Z,19.6
2019-05-26T04:34:47.915Z,19.5
2019-05-26T04:35:50.345Z,19.6
2019-05-26T04:36:52.547Z,19.7
2019-05-26T04:37:54.966Z,19.8
2019-05-26T04:38:57.124Z,19.6
2019-05-26T04:39:59.659Z,19.6
2019-05-26T04:41:01.835Z,19.7
2019-05-26T04:42:04.266Z,19.7
2019-05-26T04:43:06.427Z,19.7
2019-05-26T04:44:08.859Z,19.6
2019-05-26T04:45:11.024Z,19.5
2019-05-26T04:46:12.904Z,19.8
2019-05-26T04:47:15.064Z,19.6
2019-05-26T04:48:17.489Z,19.6
2019-05-26T04:49:19.944Z,19.7
2019-05-26T04:50:22.371Z,19.7
2019-05-26T04:51:24.590Z,19.7
2019-05-26T04:52:26.711Z,19.5
2019-05-26T04:53:28.599Z,19.8
2019-05-26T04:54:31.023Z,19.8
2019-05-26T04:55:33.173Z,19.6
2019-05-26T04:56:35.639Z,19.6
2019-05-26T04:57:38.070Z,19.7
2019-05-26T04:58:40.521Z,19.7
2019-05-26T04:59:42.721Z,19.6
2019-05-26T05:00:45.184Z,19.6
2019-05-26T05:01:47.610Z,19.6
2019-05-26T05:02:50.046Z,19.8
2019-05-26T05:03:52.211Z,19.8
2019-05-26T05:04:54.077Z,19.7
2019-05-26T05:05:56.223Z,19.6
2019-05-26T05:06:58.405Z,19.7
2019-05-26T05:08:00.843Z,19.6
2019-05-26T05:09:02.722Z,19.5
2019-05-26T05:10:05.167Z,19.5
2019-05-26T05:11:07.614Z,19.5
2019-05-26T05:12:10.027Z,19.5
2019-05-26T05:13:12.034Z,19.5
2019-05-26T05:14:14.462Z,19.6
2019-05-26T05:15:16.620Z,19.8
2019-05-26T05:16:19.085Z,19.6
2019-05-26T05:17:21.235Z,19.7
2019-05-26T05:18:23.403Z,19.6
2019-05-26T05:19:25.547Z,19.6
2019-05-26T05:20:27.719Z,19.6
2019-05-26T05:21:30.140Z,19.5
2019-05-26T05:22:32.324Z,19.4
2019-05-26T05:23:34.471Z,19.6
2019-05-26T05:24:36.658Z,19.5
2019-05-26T05:25:39.079Z,19.4
2019-05-26T05:26:41.428Z,19.6
2019-05-26T05:27:43.845Z,19.6
2019-05-26T05:28:46.007Z,19.6
2019-05-26T05:29:48.169Z,19.8
2019-05-26T05:30:50.329Z,19.8
2019-05-26T05:31:53.061Z,19.5
2019-05-26T05:32:55.281Z,19.7
2019-05-26T05:33:57.417Z,19.7
2019-05-26T05:35:00.161Z,19.4
2019-05-26T05:36:02.599Z,19.8
2019-05-26T05:37:04.768Z,19.4
2019-05-26T05:38:07.767Z,19.8
2019-05-26T05:39:10.193Z,19.7
2019-05-26T05:40:12.353Z,19.6
2019-05-26T05:41:14.780Z,19.5
2019-05-26T05:42:17.228Z,19.5
2019-05-26T05:43:19.360Z,19.7
2019-05-26T05:44:21.515Z,19.6
2019-05-26T05:45:23.973Z,19.7
2019-05-26T05:46:26.404Z,19.5
2019-05-26T05:47:28.831Z,19.6
2019-05-26T05:48:30.431Z,19.5
2019-05-26T05:49:32.857Z,19.5
2019-05-26T05:51:40.008Z,19.4
2019-05-26T05:52:42.438Z,19.7
2019-05-26T05:53:44.302Z,19.7
2019-05-26T05:54:46.461Z,19.7
2019-05-26T05:55:48.610Z,19.7
2019-05-26T05:56:51.032Z,19.6
2019-05-26T05:57:57.176Z,19.5
2019-05-26T05:58:59.391Z,19.6
2019-05-26T06:00:01.547Z,19.7
2019-05-26T06:01:03.818Z,19.7
2019-05-26T06:02:05.977Z,19.6
2019-05-26T06:03:08.397Z,19.3
2019-05-26T06:04:10.835Z,19.6
2019-05-26T06:05:12.963Z,19.6
2019-05-26T06:06:15.113Z,19.7
2019-05-26T06:07:16.982Z,19.5
2019-05-26T06:08:19.677Z,19.4
2019-05-26T06:09:22.103Z,19.8
2019-05-26T06:10:24.536Z,19.6
2019-05-26T06:11:26.959Z,19.5
2019-05-26T06:12:29.390Z,19.6
2019-05-26T06:13:31.834Z,19.7
2019-05-26T06:14:34.310Z,19.4
2019-05-26T06:15:36.783Z,19.7
2019-05-26T06:16:39.207Z,19.7
2019-05-26T06:17:41.367Z,19.6
2019-05-26T06:18:43.515Z,19.5
2019-05-26T06:19:45.964Z,19.4
2019-05-26T06:20:48.419Z,19.5
2019-05-26T06:21:50.970Z,19.7
2019-05-26T06:22:53.353Z,19.8
2019-05-26T06:23:55.531Z,19.6
2019-05-26T06:24:57.963Z,19.5
2019-05-26T06:26:00.451Z,19.3
2019-05-26T06:27:02.903Z,19.4
2019-05-26T06:28:05.331Z,19.7
2019-05-26T06:29:07.766Z,19.6
2019-05-26T06:30:09.961Z,19.6
2019-05-26T06:31:12.387Z,19.5
2019-05-26T06:32:15.466Z,19.6
2019-05-26T06:33:18.168Z,19.7
2019-05-26T06:34:20.583Z,19.6
2019-05-26T06:35:23.211Z,19.6
2019-05-26T06:36:25.640Z,19.6
2019-05-26T06:37:27.503Z,19.8
2019-05-26T06:38:29.953Z,19.6
2019-05-26T06:39:32.272Z,19.6
2019-05-26T06:40:34.407Z,19.6
2019-05-26T06:41:36.649Z,19.6
2019-05-26T06:42:38.498Z,19.7
2019-05-26T06:43:40.379Z,19.5
2019-05-26T06:45:47.795Z,19.6
2019-05-26T06:46:50.225Z,19.6
2019-05-26T06:47:52.653Z,19.6
2019-05-26T06:48:55.085Z,19.3
2019-05-26T06:49:57.515Z,19.5
2019-05-26T06:51:00.604Z,19.6
2019-05-26T06:52:03.023Z,19.6
2019-05-26T06:53:05.396Z,19.4
2019-05-26T06:54:07.555Z,19.5
2019-05-26T06:55:10.037Z,19.6
2019-05-26T06:56:12.471Z,19.6
2019-05-26T06:57:14.906Z,19.7
2019-05-26T06:58:17.075Z,19.4
2019-05-26T06:59:19.509Z,19.5
2019-05-26T07:00:21.869Z,19.4
2019-05-26T07:01:24.298Z,19.5
2019-05-26T07:02:26.727Z,19.4
2019-05-26T07:03:29.164Z,19.5
2019-05-26T07:04:31.316Z,19.5
2019-05-26T07:05:33.743Z,19.7
2019-05-26T07:06:36.190Z,19.4
2019-05-26T07:07:38.626Z,19.6
2019-05-26T07:08:40.761Z,19.7
2019-05-26T07:09:43.095Z,19.4
2019-05-26T07:10:45.313Z,19.4
2019-05-26T07:12:52.742Z,19.6
2019-05-26T07:13:55.171Z,19.7
2019-05-26T07:14:57.613Z,19.6
2019-05-26T07:15:59.500Z,19.5
2019-05-26T07:17:01.658Z,19.5
2019-05-26T07:18:04.091Z,19.5
2019-05-26T07:19:07.115Z,19.6
2019-05-26T07:20:09.873Z,19.6
2019-05-26T07:21:12.022Z,19.4
2019-05-26T07:22:14.467Z,19.5
2019-05-26T07:23:16.901Z,19.7
2019-05-26T07:24:19.057Z,19.5
2019-05-26T07:25:21.216Z,19.6
2019-05-26T07:26:23.659Z,19.6
2019-05-26T07:27:26.080Z,19.4
2019-05-26T07:28:28.503Z,19.6
2019-05-26T07:29:30.698Z,19.4
2019-05-26T07:30:33.144Z,19.5
2019-05-26T07:31:35.295Z,19.7
2019-05-26T07:32:37.727Z,19.4
2019-05-26T07:33:39.895Z,19.6
2019-05-26T07:34:42.344Z,19.4
2019-05-26T07:35:44.776Z,19.5
2019-05-26T07:36:51.675Z,19.4
2019-05-26T07:37:53.564Z,19.4
2019-05-26T07:38:56.019Z,19.7
2019-05-26T07:39:58.476Z,19.6
2019-05-26T07:41:00.700Z,19.4
2019-05-26T07:43:08.150Z,19.4
2019-05-26T07:44:10.603Z,19.7
2019-05-26T07:45:13.100Z,19.3
2019-05-26T07:46:15.263Z,19.4
2019-05-26T07:47:17.696Z,19.5
2019-05-26T07:48:19.564Z,19.5
2019-05-26T07:49:21.695Z,19.3
2019-05-26T07:50:24.120Z,19.7
2019-05-26T07:51:26.561Z,19.6
2019-05-26T07:52:29.011Z,19.5
2019-05-26T07:53:31.437Z,19.6
2019-05-26T07:54:33.890Z,19.6
2019-05-26T07:55:36.346Z,19.4
2019-05-26T07:56:38.773Z,19.3
2019-05-26T07:57:41.325Z,19.6
2019-05-26T07:58:43.455Z,19.5
2019-05-26T07:59:45.885Z,19.6
2019-05-26T08:00:48.312Z,19.5
2019-05-26T08:01:50.747Z,19.7
2019-05-26T08:02:53.331Z,19.6
2019-05-26T08:03:55.771Z,19.5
2019-05-26T08:04:57.931Z,19.4
2019-05-26T08:06:00.693Z,19.6
2019-05-26T08:07:02.819Z,19.5
2019-05-26T08:09:10.177Z,19.5
2019-05-26T08:10:12.203Z,19.6
2019-05-26T08:11:14.446Z,19.4
2019-05-26T08:13:21.991Z,19.5
2019-05-26T08:14:24.542Z,19.4
2019-05-26T08:15:26.721Z,19.6
2019-05-26T08:16:29.198Z,19.7
2019-05-26T08:17:31.669Z,19.5
2019-05-26T08:18:34.101Z,19.6
2019-05-26T08:19:36.943Z,19.5
2019-05-26T08:20:39.108Z,19.4
2019-05-26T08:21:41.356Z,19.3
2019-05-26T08:22:43.842Z,19.5
2019-05-26T08:23:46.302Z,19.5
2019-05-26T08:24:48.473Z,19.5
2019-05-26T08:25:51.018Z,19.5
2019-05-26T08:26:54.143Z,19.4
2019-05-26T08:27:56.268Z,19.5
2019-05-26T08:28:58.433Z,19.7
2019-05-26T08:30:00.773Z,19.6
2019-05-26T08:31:02.696Z,19.6
2019-05-26T08:32:04.852Z,19.5
2019-05-26T08:33:07.285Z,19.6
2019-05-26T08:34:09.711Z,19.6
2019-05-26T08:35:11.875Z,19.6
2019-05-26T08:36:14.489Z,19.4
2019-05-26T08:37:16.918Z,19.4
2019-05-26T08:38:19.353Z,19.5
2019-05-26T08:39:21.840Z,19.4
2019-05-26T08:40:24.273Z,19.4
2019-05-26T08:41:26.423Z,19.5
2019-05-26T08:43:34.014Z,19.3
2019-05-26T08:44:36.215Z,19.5
2019-05-26T08:45:37.818Z,19.5
2019-05-26T08:46:39.713Z,19.6
2019-05-26T08:47:42.164Z,19.6
2019-05-26T08:48:45.055Z,19.4
2019-05-26T08:49:47.480Z,19.8
2019-05-26T08:50:50.270Z,19.5
2019-05-26T08:51:53.318Z,19.6
2019-05-26T08:52:55.740Z,19.4
2019-05-26T08:53:58.170Z,19.5
2019-05-26T08:55:00.375Z,19.5
2019-05-26T08:56:02.823Z,19.7
2019-05-26T08:57:04.995Z,19.3
2019-05-26T08:58:07.155Z,19.5
2019-05-26T08:59:09.598Z,19.6
2019-05-26T09:00:12.035Z,19.6
2019-05-26T09:01:14.234Z,19.5
2019-05-26T09:02:16.662Z,19.5
2019-05-26T09:03:18.879Z,19.4
2019-05-26T09:04:21.375Z,19.4
2019-05-26T09:05:23.281Z,19.4
2019-05-26T09:06:25.497Z,19.4
2019-05-26T09:07:27.944Z,19.6
2019-05-26T09:08:29.818Z,19.7
2019-05-26T09:09:31.984Z,19.6
2019-05-26T09:10:34.430Z,19.4
2019-05-26T09:11:36.584Z,19.6
2019-05-26T09:12:38.467Z,19.5
2019-05-26T09:13:40.917Z,19.4
2019-05-26T09:14:43.172Z,19.5
2019-05-26T09:15:45.597Z,19.5
2019-05-26T09:16:48.025Z,19.5
2019-05-26T09:17:50.173Z,19.7
2019-05-26T09:18:52.339Z,19.3
2019-05-26T09:19:54.508Z,19.4
2019-05-26T09:20:56.964Z,19.4
2019-05-26T09:21:58.840Z,19.6
2019-05-26T09:23:01.289Z,19.3
2019-05-26T09:24:03.771Z,19.6
2019-05-26T09:25:05.935Z,19.6
2019-05-26T09:26:08.366Z,19.6
2019-05-26T09:27:10.519Z,19.6
2019-05-26T09:28:12.996Z,19.5
2019-05-26T09:29:15.155Z,19.3
2019-05-26T09:30:17.322Z,19.4
2019-05-26T09:31:19.473Z,19.5
2019-05-26T09:32:21.361Z,19.5
2019-05-26T09:33:23.794Z,19.6
2019-05-26T09:34:25.963Z,19.6
2019-05-26T09:35:28.405Z,19.5
2019-05-26T09:36:30.904Z,19.4
2019-05-26T09:37:33.132Z,19.6
2019-05-26T09:38:35.563Z,19.6
2019-05-26T09:39:37.984Z,19.4
2019-05-26T09:40:40.564Z,19.6
2019-05-26T09:41:42.425Z,19.6
2019-05-26T09:42:44.572Z,19.3
2019-05-26T09:43:46.763Z,19.6
2019-05-26T09:44:48.748Z,19.5
2019-05-26T09:45:50.651Z,19.5
2019-05-26T09:46:52.834Z,19.4
2019-05-26T09:47:55.288Z,19.7
2019-05-26T09:50:02.702Z,19.5
2019-05-26T09:51:04.585Z,19.6
2019-05-26T09:52:07.014Z,19.6
2019-05-26T09:53:09.471Z,19.4
2019-05-26T09:54:13.084Z,19.6
2019-05-26T09:55:14.973Z,19.5
2019-05-26T09:56:17.149Z,19.4
2019-05-26T09:57:19.328Z,19.3
2019-05-26T09:58:21.497Z,19.4
2019-05-26T09:59:23.926Z,19.6
2019-05-26T10:00:26.362Z,19.6
2019-05-26T10:01:28.266Z,19.3
2019-05-26T10:02:30.717Z,19.5
2019-05-26T10:03:33.137Z,19.4
2019-05-26T10:04:35.564Z,19.5
2019-05-26T10:05:37.716Z,19.6
2019-05-26T10:06:40.162Z,19.5
2019-05-26T10:07:42.047Z,19.5
2019-05-26T10:08:44.212Z,19.5
2019-05-26T10:09:46.665Z,19.4
2019-05-26T10:10:49.104Z,19.2
2019-05-26T10:11:51.017Z,19.4
2019-05-26T10:12:53.488Z,19.4
2019-05-26T10:13:55.677Z,19.6
2019-05-26T10:14:58.102Z,19.6
2019-05-26T10:16:00.271Z,19.5
2019-05-26T10:17:02.704Z,19.5
2019-05-26T10:18:04.912Z,19.5
2019-05-26T10:19:07.353Z,19.5
2019-05-26T10:20:09.744Z,19.6
2019-05-26T10:21:11.546Z,19.6
2019-05-26T10:22:14.637Z,19.3
2019-05-26T10:23:17.682Z,19.5
2019-05-26T10:24:19.564Z,19.8
2019-05-26T10:25:21.443Z,19.6
2019-05-26T10:26:23.785Z,19.5
2019-05-26T10:27:26.211Z,19.6
2019-05-26T10:28:28.097Z,19.3
2019-05-26T10:29:31.124Z,19.4
2019-05-26T10:30:33.709Z,19.3
2019-05-26T10:31:36.158Z,19.7
2019-05-26T10:32:38.052Z,19.7
2019-05-26T10:33:40.500Z,19.5
2019-05-26T10:34:42.930Z,19.6
2019-05-26T10:35:45.364Z,19.5
2019-05-26T10:36:47.527Z,19.7
2019-05-26T10:37:50.563Z,19.5
2019-05-26T10:38:52.994Z,19.5
2019-05-26T10:39:55.613Z,19.6
2019-05-26T10:40:58.030Z,19.6
2019-05-26T10:42:00.113Z,19.5
2019-05-26T10:43:02.605Z,19.4
2019-05-26T10:44:04.764Z,19.6
2019-05-26T10:45:07.194Z,19.5
2019-05-26T10:46:10.366Z,19.5
2019-05-26T10:47:12.566Z,19.5
2019-05-26T10:48:15.352Z,19.5
2019-05-26T10:49:18.108Z,19.5
2019-05-26T10:50:20.956Z,19.4
2019-05-26T10:51:22.540Z,19.5
2019-05-26T10:52:24.974Z,19.6
2019-05-26T10:53:27.404Z,19.5
2019-05-26T10:54:29.846Z,19.6
2019-05-26T10:55:32.538Z,19.7
2019-05-26T10:56:34.980Z,19.4
2019-05-26T10:57:37.403Z,19.5
2019-05-26T10:58:39.566Z,19.6
2019-05-26T10:59:41.735Z,19.5
2019-05-26T11:00:44.172Z,19.5
2019-05-26T11:01:46.605Z,19.6
2019-05-26T11:02:49.060Z,19.6
2019-05-26T11:03:51.497Z,19.5
2019-05-26T11:04:53.928Z,19.5
2019-05-26T11:05:56.404Z,19.4
2019-05-26T11:06:58.842Z,19.5
2019-05-26T11:08:01.046Z,19.5
2019-05-26T11:09:03.212Z,19.6
2019-05-26T11:10:05.652Z,19.6
2019-05-26T11:11:07.846Z,19.7
2019-05-26T11:12:10.272Z,19.6
2019-05-26T11:13:12.166Z,19.6
2019-05-26T11:14:14.606Z,19.5
2019-05-26T11:15:16.770Z,19.3
2019-05-26T11:16:18.945Z,19.4
2019-05-26T11:17:21.104Z,19.4
2019-05-26T11:18:23.533Z,19.6
2019-05-26T11:19:25.944Z,19.8
2019-05-26T11:20:28.382Z,19.5
2019-05-26T11:21:30.242Z,19.5
2019-05-26T11:22:32.674Z,19.4
2019-05-26T11:23:34.646Z,19.4
2019-05-26T11:24:37.162Z,19.3
2019-05-26T11:25:40.048Z,19.6
2019-05-26T11:26:42.499Z,19.7
2019-05-26T11:27:44.992Z,19.5
2019-05-26T11:28:46.856Z,19.6
2019-05-26T11:29:49.278Z,19.5
2019-05-26T11:30:51.470Z,19.5
2019-05-26T11:31:53.906Z,19.6
2019-05-26T11:34:01.948Z,19.6
2019-05-26T11:35:04.374Z,19.4
2019-05-26T11:36:06.814Z,19.4
2019-05-26T11:37:09.260Z,19.7
2019-05-26T11:38:11.455Z,19.6
2019-05-26T11:39:13.880Z,19.6
2019-05-26T11:40:16.512Z,19.4
2019-05-26T11:41:18.944Z,19.6
2019-05-26T11:42:21.394Z,19.6
2019-05-26T11:43:23.622Z,19.3
2019-05-26T11:44:26.344Z,19.6
2019-05-26T11:45:28.223Z,19.7
2019-05-26T11:46:30.716Z,19.7
2019-05-26T11:47:33.154Z,19.5
2019-05-26T11:48:38.870Z,19.4
2019-05-26T11:49:41.074Z,19.4
2019-05-26T11:50:43.235Z,19.7
2019-05-26T11:51:45.674Z,19.8
2019-05-26T11:52:47.833Z,19.4
2019-05-26T11:53:49.711Z,19.5
2019-05-26T11:54:52.150Z,19.6
2019-05-26T11:55:54.306Z,19.3
2019-05-26T11:56:56.762Z,19.5
2019-05-26T11:57:58.756Z,19.6
2019-05-26T11:59:01.254Z,19.4
2019-05-26T12:00:03.828Z,19.3
2019-05-26T12:01:05.761Z,19.5
2019-05-26T12:02:08.213Z,19.5
2019-05-26T12:03:10.640Z,19.4
2019-05-26T12:04:13.083Z,19.4
2019-05-26T12:06:20.524Z,19.5
2019-05-26T12:07:22.915Z,19.6
2019-05-26T12:08:25.345Z,19.7
2019-05-26T12:09:27.747Z,19.3
2019-05-26T12:10:29.955Z,19.6
2019-05-26T12:11:32.394Z,19.4
2019-05-26T12:12:34.826Z,19.6
2019-05-26T12:13:37.478Z,19.5
2019-05-26T12:14:40.418Z,19.7
2019-05-26T12:15:42.968Z,19.6
2019-05-26T12:16:45.153Z,19.4
2019-05-26T12:17:47.643Z,19.3
2019-05-26T12:18:49.285Z,19.6
2019-05-26T12:19:51.959Z,19.5
2019-05-26T12:20:54.390Z,19.5
2019-05-26T12:21:56.562Z,19.4
2019-05-26T12:22:58.990Z,19.5
2019-05-26T12:24:01.939Z,19.7
2019-05-26T12:25:03.826Z,19.5
2019-05-26T12:26:05.996Z,19.6
2019-05-26T12:27:08.182Z,19.5
2019-05-26T12:28:10.354Z,19.5
2019-05-26T12:29:13.082Z,19.7
2019-05-26T12:30:15.243Z,19.3
2019-05-26T12:31:17.407Z,19.5
2019-05-26T12:32:19.804Z,19.7
2019-05-26T12:33:21.963Z,19.6
2019-05-26T12:34:23.845Z,19.3
2019-05-26T12:35:26.467Z,19.6
2019-05-26T12:36:28.903Z,19.4
2019-05-26T12:37:31.352Z,19.5
2019-05-26T12:38:33.821Z,19.6
2019-05-26T12:39:36.145Z,19.6
2019-05-26T12:40:38.663Z,19.6
2019-05-26T12:41:41.181Z,19.7
2019-05-26T12:42:43.657Z,19.4
2019-05-26T12:43:45.876Z,19.4
2019-05-26T12:45:53.089Z,19.6
2019-05-26T12:46:55.302Z,19.5
2019-05-26T12:47:57.785Z,19.4
2019-05-26T12:49:00.219Z,19.5
2019-05-26T12:50:02.664Z,19.4
2019-05-26T12:51:05.715Z,19.5
2019-05-26T12:52:07.874Z,19.5
2019-05-26T12:53:10.381Z,19.4
2019-05-26T12:54:12.539Z,19.7
2019-05-26T12:55:14.964Z,19.6
2019-05-26T12:56:17.396Z,19.4
2019-05-26T12:57:19.581Z,19.4
2019-05-26T12:58:21.726Z,19.5
2019-05-26T12:59:24.159Z,19.6
2019-05-26T13:00:26.584Z,19.8
2019-05-26T13:01:29.009Z,19.6
2019-05-26T13:02:32.053Z,19.4
2019-05-26T13:03:34.491Z,19.5
2019-05-26T13:04:36.926Z,19.6
2019-05-26T13:05:39.353Z,19.5
2019-05-26T13:06:41.504Z,19.6
2019-05-26T13:07:43.926Z,19.5
2019-05-26T13:08:46.102Z,19.4
2019-05-26T13:09:48.263Z,19.6
2019-05-26T13:10:50.693Z,19.4
2019-05-26T13:11:52.865Z,19.4
2019-05-26T13:12:55.294Z,19.5
2019-05-26T13:13:58.481Z,19.4
2019-05-26T13:16:06.322Z,19.6
2019-05-26T13:17:08.752Z,19.4
2019-05-26T13:18:11.274Z,19.6
2019-05-26T13:19:13.446Z,19.5
2019-05-26T13:20:15.973Z,19.4
2019-05-26T13:21:18.410Z,19.5
2019-05-26T13:22:20.851Z,19.5
2019-05-26T13:23:23.283Z,19.6
2019-05-26T13:24:25.914Z,19.8
2019-05-26T13:25:28.075Z,19.5
2019-05-26T13:26:30.828Z,19.5
2019-05-26T13:27:33.244Z,19.5
2019-05-26T13:28:35.420Z,19.4
2019-05-26T13:29:37.851Z,19.5
2019-05-26T13:30:40.287Z,19.5
2019-05-26T13:31:42.715Z,19.5
2019-05-26T13:32:45.494Z,19.6
2019-05-26T13:33:47.935Z,19.5
2019-05-26T13:34:50.368Z,19.6
2019-05-26T13:35:52.522Z,19.6
2019-05-26T13:36:54.561Z,19.6
2019-05-26T13:37:56.999Z,19.3
2019-05-26T13:38:59.730Z,19.6
2019-05-26T13:40:01.935Z,19.5
2019-05-26T13:41:03.930Z,19.6
2019-05-26T13:42:06.083Z,19.6
2019-05-26T13:43:07.710Z,19.6
2019-05-26T13:44:10.135Z,19.5
2019-05-26T13:46:17.557Z,19.5
2019-05-26T13:48:25.073Z,19.6
2019-05-26T13:49:27.515Z,19.5
2019-05-26T13:50:30.595Z,19.5
2019-05-26T13:51:33.024Z,19.6
2019-05-26T13:52:35.288Z,19.5
2019-05-26T13:53:37.430Z,19.8
2019-05-26T13:54:39.637Z,19.4
2019-05-26T13:55:42.067Z,19.6
2019-05-26T13:56:44.225Z,19.5
2019-05-26T13:58:52.182Z,19.5
2019-05-26T13:59:54.640Z,19.4
2019-05-26T14:00:56.868Z,19.5
2019-05-26T14:01:58.792Z,19.5
2019-05-26T14:03:01.215Z,19.4
2019-05-26T14:04:04.672Z,19.4
2019-05-26T14:05:07.210Z,19.4
2019-05-26T14:06:09.685Z,19.6
2019-05-26T14:07:11.936Z,19.6
2019-05-26T14:08:14.980Z,19.6
2019-05-26T14:09:17.100Z,19.6
2019-05-26T14:10:19.524Z,19.7
2019-05-26T14:11:22.133Z,19.5
2019-05-26T14:12:24.564Z,19.6
2019-05-26T14:13:27.046Z,19.5
2019-05-26T14:14:29.484Z,19.5
2019-05-26T14:16:36.626Z,19.6